Time;durP1;ratioP1;P1;durP2;ratioP2;P2;SDS_P1;SDS_P2;PMS_P1;PMS_P2;Temp;Humidity;BMP_temperature;BMP_pressure;BME280_temperature;BME280_humidity;BME280_pressure;Samples;Min_cycle;Max_cycle;Signal;HPM_P1;HPM_P2
2022/05/02 00:00:30;;;;;;;0.80;0.50;;;10.50;99.90;;;;;;4994422;28;20554;-70
2022/05/02 00:02:55;;;;;;;0.80;0.50;;;10.50;99.90;;;;;;4995477;28;20407;-71
2022/05/02 00:05:21;;;;;;;0.80;0.50;;;10.40;99.90;;;;;;4995594;28;20177;-71
2022/05/02 00:07:47;;;;;;;0.80;0.50;;;10.40;99.90;;;;;;4995756;28;20201;-72
2022/05/02 00:10:13;;;;;;;0.80;0.50;;;10.40;99.90;;;;;;5000143;28;20181;-72
2022/05/02 00:12:39;;;;;;;0.80;0.50;;;10.30;99.90;;;;;;4998598;28;20176;-71
2022/05/02 00:15:05;;;;;;;0.80;0.50;;;10.30;99.90;;;;;;4995481;28;20224;-71
2022/05/02 00:20:15;;;;;;;0.80;0.50;;;10.20;99.90;;;;;;4995379;28;20504;-71
2022/05/02 00:22:41;;;;;;;0.80;0.50;;;10.20;99.90;;;;;;4995247;28;20440;-72
2022/05/02 00:25:07;;;;;;;0.80;0.50;;;10.10;99.90;;;;;;4993837;28;20439;-72
2022/05/02 00:27:33;;;;;;;0.80;0.50;;;10.10;99.90;;;;;;4994749;28;20188;-70
2022/05/02 00:29:59;;;;;;;0.80;0.50;;;10.10;99.90;;;;;;4995096;28;20427;-71
2022/05/02 00:32:25;;;;;;;0.80;0.50;;;10.10;99.90;;;;;;4995199;28;20165;-71
2022/05/02 00:34:50;;;;;;;0.90;0.70;;;10.10;99.90;;;;;;4994707;28;20455;-71
2022/05/02 00:37:17;;;;;;;0.80;0.50;;;10.10;99.90;;;;;;4994300;28;20591;-70
2022/05/02 00:39:42;;;;;;;1.87;0.80;;;10.10;99.90;;;;;;4994718;28;20255;-70
2022/05/02 00:42:08;;;;;;;0.80;0.50;;;10.10;99.90;;;;;;4993370;28;20495;-70
2022/05/02 00:44:33;;;;;;;0.80;0.50;;;10.10;99.90;;;;;;4994691;28;20373;-71
2022/05/02 00:46:59;;;;;;;0.80;0.60;;;10.10;99.90;;;;;;4994341;28;20176;-70
2022/05/02 00:49:24;;;;;;;0.80;0.50;;;10.10;99.90;;;;;;4994803;28;20184;-71
2022/05/02 00:51:50;;;;;;;0.80;0.50;;;10.00;99.90;;;;;;4994698;28;20220;-71
2022/05/02 00:54:16;;;;;;;0.80;0.50;;;10.00;99.90;;;;;;4993350;28;20259;-71
2022/05/02 00:56:41;;;;;;;0.80;0.50;;;10.00;99.90;;;;;;4993221;28;20173;-72
2022/05/02 00:59:11;;;;;;;0.80;0.50;;;10.00;99.90;;;;;;4999075;28;20248;-72
2022/05/02 01:01:37;;;;;;;0.80;0.50;;;9.90;99.90;;;;;;4997749;28;20177;-69
2022/05/02 01:04:02;;;;;;;0.80;0.50;;;9.90;99.90;;;;;;4994169;28;20486;-69
2022/05/02 01:09:12;;;;;;;0.80;0.50;;;9.80;99.90;;;;;;4994531;28;20188;-70
2022/05/02 01:11:38;;;;;;;0.80;0.50;;;9.80;99.90;;;;;;4994374;28;20778;-69
2022/05/02 01:14:08;;;;;;;0.80;0.50;;;9.80;99.90;;;;;;4994107;28;20689;-70
2022/05/02 01:16:33;;;;;;;0.80;0.50;;;9.80;99.90;;;;;;4993873;28;20215;-71
2022/05/02 01:18:59;;;;;;;0.80;0.50;;;9.90;99.90;;;;;;4993904;28;20432;-70
2022/05/02 01:21:29;;;;;;;0.80;0.50;;;9.90;99.90;;;;;;4992804;28;20589;-70
2022/05/02 01:23:59;;;;;;;0.80;0.50;;;10.00;99.90;;;;;;4993855;28;20408;-70
2022/05/02 01:26:25;;;;;;;0.80;0.50;;;10.00;99.90;;;;;;4993674;28;20412;-69
2022/05/02 01:29:00;;;;;;;0.80;0.50;;;10.10;99.90;;;;;;4993747;28;20932;-69
2022/05/02 01:31:26;;;;;;;0.80;0.50;;;10.20;99.90;;;;;;4993796;28;20173;-69
2022/05/02 01:33:53;;;;;;;0.80;0.50;;;10.20;99.90;;;;;;4993473;28;20517;-71
2022/05/02 01:36:20;;;;;;;0.80;0.50;;;10.30;99.90;;;;;;4993592;28;20169;-70
2022/05/02 01:38:46;;;;;;;0.73;0.50;;;10.40;99.90;;;;;;4993240;28;20432;-69
2022/05/02 01:41:12;;;;;;;0.80;0.50;;;10.40;99.90;;;;;;4993680;28;20407;-70
2022/05/02 01:43:39;;;;;;;0.80;0.50;;;10.50;99.90;;;;;;4993496;28;20918;-70
2022/05/02 01:46:06;;;;;;;0.80;0.50;;;10.50;99.90;;;;;;4993401;28;20173;-71
2022/05/02 01:48:32;;;;;;;0.77;0.50;;;10.60;99.90;;;;;;4993054;28;20446;-70
2022/05/02 01:50:58;;;;;;;0.80;0.50;;;10.60;99.90;;;;;;4993511;28;20506;-70
2022/05/02 01:53:25;;;;;;;0.80;0.50;;;10.70;99.90;;;;;;4992486;28;20411;-69
2022/05/02 01:55:51;;;;;;;0.80;0.50;;;10.70;99.90;;;;;;4993371;28;20416;-70
2022/05/02 01:58:16;;;;;;;0.80;0.50;;;10.70;99.90;;;;;;4993045;28;20486;-69
2022/05/02 02:00:42;;;;;;;0.80;0.50;;;10.70;99.90;;;;;;4993255;28;20235;-70
2022/05/02 02:03:07;;;;;;;0.73;0.50;;;10.80;99.90;;;;;;4993257;28;20172;-70
2022/05/02 02:05:48;;;;;;;0.90;0.60;;;10.80;99.90;;;;;;4993116;28;20173;-70
2022/05/02 02:08:33;;;;;;;0.70;0.50;;;10.80;99.90;;;;;;4991434;28;20188;-70
2022/05/02 02:11:04;;;;;;;0.80;0.50;;;10.90;99.90;;;;;;4993007;28;20493;-71
2022/05/02 02:13:30;;;;;;;0.80;0.50;;;10.90;99.90;;;;;;4993051;28;20439;-70
2022/05/02 02:15:56;;;;;;;0.80;0.50;;;10.90;99.90;;;;;;4993031;28;20411;-70
2022/05/02 02:18:21;;;;;;;0.80;0.50;;;11.00;99.90;;;;;;4992770;28;20424;-71
2022/05/02 02:20:49;;;;;;;0.73;0.50;;;11.00;99.90;;;;;;4992884;28;20516;-71
2022/05/02 02:23:16;;;;;;;0.77;0.50;;;11.00;99.90;;;;;;4992710;28;20173;-70
2022/05/02 02:25:42;;;;;;;0.80;0.50;;;11.00;99.90;;;;;;4992785;28;20408;-71
2022/05/02 02:28:08;;;;;;;0.80;0.60;;;11.00;99.90;;;;;;4992562;28;20424;-70
2022/05/02 02:30:34;;;;;;;0.80;0.50;;;11.10;99.90;;;;;;4991487;28;20411;-70
2022/05/02 02:33:00;;;;;;;0.77;0.50;;;11.10;99.90;;;;;;4992933;28;20550;-69
2022/05/02 02:35:27;;;;;;;0.80;0.50;;;11.10;99.90;;;;;;4992541;28;20200;-70
2022/05/02 02:37:53;;;;;;;0.80;0.50;;;11.10;99.90;;;;;;4992413;28;20483;-70
2022/05/02 02:40:18;;;;;;;0.73;0.50;;;11.10;99.90;;;;;;4992661;28;20886;-69
2022/05/02 02:42:45;;;;;;;0.80;0.50;;;11.10;99.90;;;;;;4992706;28;20173;-70
2022/05/02 02:45:11;;;;;;;0.83;0.53;;;11.10;99.90;;;;;;4992629;28;20179;-70
2022/05/02 02:47:37;;;;;;;0.77;0.50;;;11.10;99.90;;;;;;4992023;28;20432;-70
2022/05/02 02:50:03;;;;;;;0.70;0.50;;;11.10;99.90;;;;;;4992461;28;20211;-70
2022/05/02 02:52:29;;;;;;;0.80;0.50;;;11.10;99.90;;;;;;4991130;28;20416;-70
2022/05/02 02:54:55;;;;;;;0.70;0.50;;;11.10;99.90;;;;;;4992434;28;20466;-70
2022/05/02 02:57:21;;;;;;;1.87;0.70;;;11.10;99.90;;;;;;4992155;28;20196;-70
2022/05/02 02:59:46;;;;;;;0.80;0.50;;;11.10;99.90;;;;;;4992649;28;20587;-70
2022/05/02 03:02:13;;;;;;;0.70;0.50;;;11.10;99.90;;;;;;4992461;28;20451;-70
2022/05/02 03:07:24;;;;;;;1.97;0.70;;;11.10;99.90;;;;;;4996140;28;20431;-70
2022/05/02 03:09:50;;;;;;;0.80;0.50;;;11.10;99.90;;;;;;4996558;28;20419;-70
2022/05/02 03:12:15;;;;;;;1.23;0.60;;;11.00;99.90;;;;;;4996400;28;20411;-70
2022/05/02 03:14:41;;;;;;;0.70;0.50;;;11.10;99.90;;;;;;4995073;28;20193;-70
2022/05/02 03:17:06;;;;;;;0.70;0.50;;;11.00;99.90;;;;;;4995906;28;20193;-71
2022/05/02 03:19:32;;;;;;;0.80;0.50;;;11.00;99.90;;;;;;4996170;28;20176;-70
2022/05/02 03:21:57;;;;;;;0.80;0.50;;;11.00;99.90;;;;;;4996185;28;20169;-69
2022/05/02 03:24:23;;;;;;;0.80;0.60;;;11.00;99.90;;;;;;4996008;28;20169;-70
2022/05/02 03:26:49;;;;;;;0.70;0.50;;;11.00;99.90;;;;;;4995724;28;20169;-70
2022/05/02 03:29:14;;;;;;;0.80;0.50;;;11.00;99.90;;;;;;4996139;28;20175;-70
2022/05/02 03:31:40;;;;;;;0.77;0.50;;;11.00;99.90;;;;;;4995978;28;20263;-70
2022/05/02 03:34:05;;;;;;;1.43;0.70;;;11.00;99.90;;;;;;4994631;28;20283;-70
2022/05/02 03:36:31;;;;;;;0.80;0.50;;;11.00;99.90;;;;;;4995768;28;20203;-73
2022/05/02 03:38:57;;;;;;;1.33;0.90;;;11.00;99.90;;;;;;4995602;28;20227;-70
2022/05/02 03:41:22;;;;;;;0.70;0.50;;;10.90;99.90;;;;;;4995933;28;20184;-69
2022/05/02 03:43:48;;;;;;;0.80;0.60;;;11.00;99.90;;;;;;4994415;28;20187;-70
2022/05/02 03:46:13;;;;;;;2.90;0.80;;;10.90;99.90;;;;;;4995764;28;20183;-71
2022/05/02 03:48:39;;;;;;;0.80;0.60;;;10.90;99.90;;;;;;4995311;28;20196;-70
2022/05/02 03:51:04;;;;;;;0.70;0.50;;;10.90;99.90;;;;;;4994545;28;20204;-69
2022/05/02 03:53:30;;;;;;;0.80;0.60;;;11.00;99.90;;;;;;4995358;28;20231;-69
2022/05/02 03:55:55;;;;;;;0.70;0.50;;;11.00;99.90;;;;;;4994454;28;20211;-69
2022/05/02 03:58:21;;;;;;;1.13;0.63;;;11.00;99.90;;;;;;4995149;28;20192;-69
2022/05/02 04:00:47;;;;;;;0.80;0.70;;;11.00;99.90;;;;;;4995480;28;20161;-70
2022/05/02 04:03:14;;;;;;;1.10;0.60;;;11.00;99.90;;;;;;4995351;28;20165;-70
2022/05/02 04:05:39;;;;;;;2.10;1.07;;;11.00;99.90;;;;;;4995410;28;20418;-70
2022/05/02 04:08:05;;;;;;;1.00;0.90;;;11.00;99.90;;;;;;4994954;28;20428;-70
2022/05/02 04:10:30;;;;;;;2.40;2.20;;;11.00;99.90;;;;;;4994238;28;20207;-70
2022/05/02 04:12:56;;;;;;;0.80;0.50;;;11.00;99.90;;;;;;4995251;28;20176;-72
2022/05/02 04:15:21;;;;;;;0.80;0.50;;;11.00;99.90;;;;;;4993457;28;20212;-69
2022/05/02 04:17:47;;;;;;;0.80;0.60;;;11.00;99.90;;;;;;4994866;28;20189;-69
2022/05/02 04:20:13;;;;;;;0.80;0.50;;;11.00;99.90;;;;;;4995152;28;20545;-70
2022/05/02 04:22:40;;;;;;;0.80;0.50;;;11.00;99.90;;;;;;4993967;28;20165;-72
2022/05/02 04:25:06;;;;;;;0.77;0.50;;;11.00;99.90;;;;;;4994984;28;20177;-70
2022/05/02 04:27:32;;;;;;;0.70;0.50;;;11.00;99.90;;;;;;4993458;28;20442;-70
2022/05/02 04:29:57;;;;;;;0.70;0.50;;;11.00;99.90;;;;;;4994910;28;20412;-69
2022/05/02 04:32:23;;;;;;;1.67;0.63;;;11.00;99.90;;;;;;4994855;28;20204;-69
2022/05/02 04:34:48;;;;;;;0.80;0.50;;;11.00;99.90;;;;;;4993307;28;20207;-69
2022/05/02 04:37:14;;;;;;;0.70;0.50;;;11.00;99.90;;;;;;4994593;28;20912;-70
2022/05/02 04:39:39;;;;;;;0.73;0.60;;;11.10;99.90;;;;;;4994782;28;20256;-70
2022/05/02 04:42:06;;;;;;;0.70;0.50;;;11.10;99.90;;;;;;4993469;28;20188;-70
2022/05/02 04:44:32;;;;;;;0.70;0.50;;;11.10;99.90;;;;;;4994602;28;20178;-70
2022/05/02 04:46:58;;;;;;;0.80;0.50;;;11.10;99.90;;;;;;4993135;28;20999;-69
2022/05/02 04:49:24;;;;;;;0.70;0.50;;;11.10;99.90;;;;;;4993206;28;20416;-70
2022/05/02 04:51:49;;;;;;;0.70;0.50;;;11.10;99.90;;;;;;4994627;28;20714;-71
2022/05/02 04:54:15;;;;;;;0.80;0.50;;;11.20;99.90;;;;;;4994333;28;20204;-71
2022/05/02 04:56:40;;;;;;;0.70;0.50;;;11.20;99.90;;;;;;4993085;28;20173;-70
2022/05/02 04:59:06;;;;;;;2.00;0.80;;;11.20;99.90;;;;;;4994361;28;20185;-70
2022/05/02 05:01:31;;;;;;;0.70;0.50;;;11.20;99.90;;;;;;4994323;28;20165;-70
2022/05/02 05:03:57;;;;;;;1.07;0.70;;;11.30;99.90;;;;;;4994404;28;20537;-70
2022/05/02 05:06:23;;;;;;;0.80;0.60;;;11.30;99.90;;;;;;4993032;28;20177;-70
2022/05/02 05:08:48;;;;;;;0.80;0.60;;;11.40;99.90;;;;;;4993923;28;20616;-70
2022/05/02 05:11:16;;;;;;;0.80;0.50;;;11.40;99.90;;;;;;4994153;28;20534;-71
2022/05/02 05:17:14;;;;;;;0.80;0.63;;;11.50;99.90;;;;;;4994070;28;20415;-70
2022/05/02 05:20:10;;;;;;;0.80;0.60;;;11.50;99.90;;;;;;4992824;28;20408;-70
2022/05/02 05:23:02;;;;;;;0.80;0.50;;;11.50;99.90;;;;;;4992752;28;20404;-70
2022/05/02 05:25:42;;;;;;;0.80;0.60;;;11.60;99.90;;;;;;4993849;28;20468;-70
2022/05/02 05:28:41;;;;;;;0.80;0.50;;;11.60;99.90;;;;;;4992810;28;20933;-71
2022/05/02 05:31:15;;;;;;;0.80;0.50;;;11.60;99.90;;;;;;4993799;28;20499;-70
2022/05/02 05:33:53;;;;;;;0.73;0.50;;;11.70;99.90;;;;;;4993697;28;20952;-70
2022/05/02 05:36:39;;;;;;;0.80;0.50;;;11.70;99.90;;;;;;4993689;28;20473;-70
2022/05/02 05:39:06;;;;;;;0.80;0.50;;;11.80;99.90;;;;;;4993633;28;20968;-70
2022/05/02 05:42:01;;;;;;;1.50;0.60;;;11.90;99.90;;;;;;4993561;28;20408;-69
2022/05/02 05:45:00;;;;;;;1.33;0.77;;;12.00;99.90;;;;;;4993664;28;20412;-71
2022/05/02 05:47:52;;;;;;;2.70;1.53;;;12.10;99.90;;;;;;4993126;28;20428;-70
2022/05/02 05:50:22;;;;;;;0.80;0.50;;;12.20;99.90;;;;;;4993514;28;20494;-70
2022/05/02 05:53:25;;;;;;;0.80;0.50;;;12.30;99.90;;;;;;4993355;28;20400;-70
2022/05/02 05:56:30;;;;;;;0.90;0.60;;;12.40;99.90;;;;;;4992079;28;20518;-70
2022/05/02 05:59:08;;;;;;;0.80;0.50;;;12.60;99.90;;;;;;4993060;28;20423;-70
2022/05/02 06:01:40;;;;;;;0.80;0.60;;;12.70;99.90;;;;;;4993246;28;20411;-69
2022/05/02 06:04:07;;;;;;;0.80;0.50;;;12.90;99.90;;;;;;4993174;28;20396;-70
2022/05/02 06:06:35;;;;;;;0.70;0.50;;;13.10;99.90;;;;;;4993118;28;20404;-72
2022/05/02 06:09:01;;;;;;;0.80;0.60;;;13.20;99.90;;;;;;4992969;28;20436;-70
2022/05/02 06:11:28;;;;;;;1.00;0.80;;;13.50;99.90;;;;;;4991822;28;20499;-70
2022/05/02 06:13:56;;;;;;;0.80;0.50;;;13.70;99.90;;;;;;4992908;28;20964;-69
2022/05/02 06:19:25;;;;;;;1.00;0.77;;;14.10;99.90;;;;;;4960037;28;20439;-70
2022/05/02 06:21:53;;;;;;;1.13;0.60;;;14.50;99.90;;;;;;4992858;28;20443;-70
2022/05/02 06:24:19;;;;;;;0.90;0.70;;;14.90;99.90;;;;;;4992944;28;20404;-70
2022/05/02 06:26:46;;;;;;;0.90;0.60;;;15.40;99.90;;;;;;4992780;28;20415;-70
2022/05/02 06:29:12;;;;;;;0.90;0.70;;;16.00;99.90;;;;;;4991403;28;20420;-71
2022/05/02 06:31:45;;;;;;;1.33;1.23;;;16.60;99.90;;;;;;4992366;28;20411;-70
2022/05/02 06:34:12;;;;;;;1.10;0.80;;;17.30;99.90;;;;;;4992090;28;20527;-70
2022/05/02 06:37:03;;;;;;;1.20;0.80;;;17.70;99.90;;;;;;4992754;28;20431;-70
2022/05/02 06:39:53;;;;;;;1.30;0.80;;;18.20;99.90;;;;;;4992721;28;20479;-70
2022/05/02 06:42:25;;;;;;;1.53;1.40;;;19.00;99.90;;;;;;4992409;28;20407;-70
2022/05/02 06:45:01;;;;;;;0.90;0.60;;;19.50;99.90;;;;;;4992503;28;20404;-70
2022/05/02 06:47:58;;;;;;;1.00;0.70;;;19.90;99.90;;;;;;4992112;28;20848;-71
2022/05/02 06:50:25;;;;;;;1.40;0.80;;;20.60;99.90;;;;;;4992398;28;20415;-70
2022/05/02 06:53:12;;;;;;;1.40;1.00;;;21.30;99.90;;;;;;4992423;28;20404;-70
2022/05/02 06:56:15;;;;;;;0.90;0.70;;;22.10;99.90;;;;;;4992165;28;20563;-70
2022/05/02 06:59:21;;;;;;;0.87;0.70;;;22.80;99.90;;;;;;5007038;28;20435;-70
2022/05/02 07:01:48;;;;;;;1.07;0.70;;;23.10;99.90;;;;;;4981506;28;20404;-70
2022/05/02 07:04:50;;;;;;;2.60;1.07;;;23.10;99.90;;;;;;4992189;28;20459;-70
2022/05/02 07:07:26;;;;;;;2.30;1.00;;;23.00;99.90;;;;;;4990644;28;20443;-70
2022/05/02 07:09:59;;;;;;;0.90;0.60;;;22.90;99.90;;;;;;4992292;28;20404;-70
2022/05/02 07:12:26;;;;;;;0.80;0.70;;;22.90;99.30;;;;;;4990927;28;20420;-71
2022/05/02 07:15:05;;;;;;;0.80;0.60;;;22.90;97.80;;;;;;4991928;28;20543;-70
2022/05/02 07:17:42;;;;;;;0.80;0.70;;;23.00;97.00;;;;;;4991889;28;20507;-70
2022/05/02 07:20:35;;;;;;;1.30;1.03;;;23.10;96.50;;;;;;4992062;28;20396;-70
2022/05/02 07:23:27;;;;;;;1.43;1.00;;;23.30;95.60;;;;;;4982182;28;20420;-71
2022/05/02 07:26:15;;;;;;;1.00;0.87;;;23.60;94.80;;;;;;4991991;28;20407;-71
2022/05/02 07:28:46;;;;;;;1.40;0.90;;;23.80;93.30;;;;;;4991651;28;20408;-70
2022/05/02 07:31:14;;;;;;;1.57;1.47;;;23.90;92.00;;;;;;4990703;28;20447;-71
2022/05/02 07:33:40;;;;;;;1.00;0.80;;;23.90;90.90;;;;;;4991916;28;20407;-72
2022/05/02 07:36:07;;;;;;;2.13;1.50;;;23.90;90.00;;;;;;4991901;28;20768;-71
2022/05/02 07:38:36;;;;;;;1.10;0.70;;;23.90;87.80;;;;;;4991632;28;20424;-70
2022/05/02 07:41:25;;;;;;;1.07;0.97;;;23.90;85.60;;;;;;4996016;28;20791;-69
2022/05/02 07:43:59;;;;;;;0.90;0.70;;;24.50;86.40;;;;;;5006011;28;20416;-68
2022/05/02 07:46:45;;;;;;;1.00;0.70;;;25.70;85.20;;;;;;4991873;28;20431;-68
2022/05/02 07:49:14;;;;;;;1.13;0.87;;;26.60;82.50;;;;;;4991586;28;20411;-68
2022/05/02 07:51:46;;;;;;;2.23;1.10;;;27.10;79.50;;;;;;4994336;28;20905;-69
2022/05/02 07:54:18;;;;;;;1.20;0.90;;;27.90;77.50;;;;;;4995216;28;20538;-69
2022/05/02 07:56:47;;;;;;;1.77;1.13;;;28.60;74.60;;;;;;4995283;28;20438;-69
2022/05/02 07:59:15;;;;;;;1.03;0.83;;;29.30;71.90;;;;;;4995000;28;20419;-69
2022/05/02 08:01:41;;;;;;;1.30;0.90;;;30.60;69.10;;;;;;4995245;28;20440;-69
2022/05/02 08:04:10;;;;;;;2.80;1.20;;;31.30;64.90;;;;;;4993922;28;20416;-69
2022/05/02 08:06:49;;;;;;;1.20;1.10;;;32.30;61.80;;;;;;4995188;28;20204;-69
2022/05/02 08:09:42;;;;;;;1.43;1.30;;;33.90;58.60;;;;;;4994808;28;20426;-70
2022/05/02 08:12:11;;;;;;;1.40;0.67;;;35.60;55.50;;;;;;4995180;28;21127;-69
2022/05/02 08:14:47;;;;;;;1.67;1.30;;;37.10;52.00;;;;;;4994811;28;20803;-71
2022/05/02 08:17:30;;;;;;;1.10;1.00;;;38.40;49.20;;;;;;4994617;28;20432;-69
2022/05/02 08:20:08;;;;;;;1.13;1.03;;;39.70;46.40;;;;;;4994964;28;20438;-70
2022/05/02 08:28:45;;;;;;;0.90;0.80;;;43.00;40.30;;;;;;4994772;28;20450;-71
2022/05/02 08:31:24;;;;;;;1.00;0.90;;;44.10;38.10;;;;;;4995230;28;20893;-71
2022/05/02 08:34:11;;;;;;;1.00;0.90;;;44.90;36.90;;;;;;4994985;28;20467;-70
2022/05/02 08:36:59;;;;;;;2.33;1.60;;;45.60;35.50;;;;;;4994787;28;20400;-69
2022/05/02 08:39:51;;;;;;;1.10;1.00;;;46.40;34.50;;;;;;4994272;28;20913;-70
2022/05/02 08:42:45;;;;;;;3.00;2.23;;;47.00;33.10;;;;;;4996596;28;20407;-72
2022/05/02 08:45:24;;;;;;;1.20;1.10;;;47.70;32.20;;;;;;5013082;28;20416;-69
2022/05/02 08:48:08;;;;;;;1.10;1.00;;;48.20;31.50;;;;;;5009080;28;20905;-70
2022/05/02 08:50:46;;;;;;;1.60;1.50;;;48.50;30.60;;;;;;4994386;28;20408;-71
2022/05/02 08:53:41;;;;;;;1.47;1.37;;;48.90;30.10;;;;;;4993014;28;20412;-72
2022/05/02 08:56:35;;;;;;;1.20;1.10;;;49.30;29.40;;;;;;4994283;28;20940;-71
2022/05/02 08:59:24;;;;;;;1.33;1.23;;;49.70;28.70;;;;;;4991574;28;20407;-71
2022/05/02 09:02:16;;;;;;;1.30;1.20;;;50.00;28.50;;;;;;4993113;28;20436;-71
2022/05/02 09:05:16;;;;;;;1.60;1.50;;;50.20;28.10;;;;;;4994137;28;20404;-72
2022/05/02 09:08:18;;;;;;;1.20;1.10;;;50.60;27.80;;;;;;4993664;28;20398;-72
2022/05/02 09:11:04;;;;;;;1.40;1.30;;;51.00;27.50;;;;;;4994009;28;20370;-71
2022/05/02 09:14:07;;;;;;;1.40;1.30;;;51.30;27.20;;;;;;4993886;28;20371;-71
2022/05/02 09:16:49;;;;;;;1.40;1.30;;;51.70;27.00;;;;;;4993852;28;20379;-71
2022/05/02 09:19:27;;;;;;;1.37;1.27;;;51.90;26.70;;;;;;4993561;28;20405;-71
2022/05/02 09:22:13;;;;;;;1.27;1.17;;;52.10;26.40;;;;;;4993735;28;20382;-71
2022/05/02 09:24:52;;;;;;;1.57;1.47;;;52.50;26.30;;;;;;5008654;28;20477;-71
2022/05/02 09:27:37;;;;;;;1.43;1.33;;;52.70;26.10;;;;;;4993599;28;20927;-71
2022/05/02 09:30:23;;;;;;;1.40;1.30;;;53.10;25.90;;;;;;4993546;28;20407;-71
2022/05/02 09:33:24;;;;;;;1.37;1.27;;;53.20;25.60;;;;;;4993610;28;20399;-71
2022/05/02 09:36:01;;;;;;;1.37;1.23;;;53.40;25.40;;;;;;4993767;28;20448;-71
2022/05/02 09:38:34;;;;;;;1.40;1.30;;;53.70;25.20;;;;;;4991991;28;20945;-71
2022/05/02 09:41:06;;;;;;;1.40;1.30;;;53.80;25.00;;;;;;5002356;28;20405;-73
2022/05/02 09:50:41;;;;;;;1.80;1.70;;;54.50;24.30;;;;;;5001287;28;20430;-72
2022/05/02 09:53:21;;;;;;;1.67;1.57;;;54.70;23.90;;;;;;4985038;28;20958;-71
2022/05/02 09:58:53;;;;;;;1.63;1.53;;;55.00;23.60;;;;;;4992945;28;20488;-71
2022/05/02 10:01:26;;;;;;;1.70;1.60;;;55.20;23.60;;;;;;4993413;28;20583;-71
2022/05/02 10:04:14;;;;;;;1.70;1.60;;;55.40;23.60;;;;;;4999169;28;20445;-73
2022/05/02 10:06:50;;;;;;;1.70;1.60;;;55.50;23.40;;;;;;4998173;28;20408;-71
2022/05/02 10:09:53;;;;;;;1.90;1.80;;;55.70;23.30;;;;;;4992947;28;20400;-70
2022/05/02 10:12:48;;;;;;;1.70;1.60;;;55.90;23.10;;;;;;4993205;28;20931;-70
2022/05/02 10:15:42;;;;;;;1.70;1.60;;;56.10;23.10;;;;;;4996472;28;20468;-73
2022/05/02 10:18:17;;;;;;;1.90;1.80;;;56.20;23.10;;;;;;5026951;28;20439;-72
2022/05/02 10:21:07;;;;;;;1.80;1.70;;;56.20;22.80;;;;;;5011539;28;20388;-72
2022/05/02 10:23:58;;;;;;;1.73;1.63;;;56.40;22.80;;;;;;5008015;28;20426;-73
2022/05/02 10:26:42;;;;;;;1.80;1.70;;;56.50;22.70;;;;;;5009942;28;20419;-73
2022/05/02 10:29:26;;;;;;;1.90;1.80;;;56.70;22.80;;;;;;4995918;28;20427;-71
2022/05/02 10:32:02;;;;;;;1.87;1.77;;;56.80;22.60;;;;;;4991712;28;20414;-72
2022/05/02 10:34:30;;;;;;;1.73;1.63;;;57.10;22.60;;;;;;4993122;28;20450;-71
2022/05/02 10:36:59;;;;;;;2.13;2.03;;;57.10;22.40;;;;;;4992865;28;20410;-71
2022/05/02 10:39:45;;;;;;;2.20;2.00;;;57.30;22.40;;;;;;4992524;28;20416;-71
2022/05/02 10:42:13;;;;;;;2.23;2.13;;;57.50;22.30;;;;;;4992734;28;20383;-72
2022/05/02 10:45:05;;;;;;;2.00;1.90;;;57.70;22.10;;;;;;5004593;28;20507;-71
2022/05/02 10:47:37;;;;;;;2.60;2.50;;;57.90;21.90;;;;;;5012375;28;20413;-71
2022/05/02 10:50:04;;;;;;;2.33;2.23;;;58.10;21.90;;;;;;5027802;28;20426;-71
2022/05/02 10:53:02;;;;;;;2.33;2.23;;;58.20;21.80;;;;;;5011890;28;20420;-73
2022/05/02 10:55:32;;;;;;;2.00;1.90;;;58.40;21.80;;;;;;5010252;28;20456;-73
2022/05/02 10:58:04;;;;;;;2.20;2.10;;;58.70;21.60;;;;;;4996408;28;20448;-70
2022/05/02 11:00:30;;;;;;;2.43;2.33;;;58.80;21.60;;;;;;4992261;28;20430;-70
2022/05/02 11:02:58;;;;;;;2.57;2.47;;;59.00;21.50;;;;;;4992447;28;20400;-70
2022/05/02 11:05:43;;;;;;;2.47;2.30;;;59.20;21.40;;;;;;5006337;28;20511;-73
2022/05/02 11:08:18;;;;;;;2.33;2.23;;;59.40;21.40;;;;;;5010396;28;20427;-72
2022/05/02 11:10:59;;;;;;;2.40;2.30;;;59.60;21.30;;;;;;5009000;28;20426;-73
2022/05/02 11:13:58;;;;;;;2.20;2.10;;;59.80;21.30;;;;;;5011576;28;20427;-73
2022/05/02 11:16:33;;;;;;;2.33;2.23;;;60.00;21.20;;;;;;4980463;28;20912;-71
2022/05/02 11:22:30;;;;;;;2.40;2.30;;;60.60;21.10;;;;;;5002895;28;20443;-72
2022/05/02 11:25:20;;;;;;;2.60;2.50;;;60.70;20.80;;;;;;4995913;28;20439;-71
2022/05/02 11:28:04;;;;;;;2.93;2.80;;;60.60;20.80;;;;;;5013433;28;20436;-71
2022/05/02 11:30:50;;;;;;;2.50;2.40;;;60.70;20.60;;;;;;5012630;28;20419;-72
2022/05/02 11:33:22;;;;;;;2.50;2.40;;;60.70;20.60;;;;;;5000466;28;20463;-71
2022/05/02 11:35:49;;;;;;;2.37;2.27;;;60.70;20.40;;;;;;4996002;28;20412;-71
2022/05/02 11:38:40;;;;;;;2.60;2.50;;;60.80;20.30;;;;;;4995582;28;20420;-70
2022/05/02 11:41:08;;;;;;;2.60;2.50;;;61.00;20.30;;;;;;4996402;28;20412;-72
2022/05/02 11:43:36;;;;;;;2.77;2.67;;;61.40;20.40;;;;;;4995812;28;20415;-71
2022/05/02 11:46:09;;;;;;;2.90;2.80;;;61.80;20.30;;;;;;5009346;28;20400;-72
2022/05/02 11:49:06;;;;;;;2.70;2.60;;;62.00;20.30;;;;;;5014777;28;20450;-73
2022/05/02 11:51:40;;;;;;;2.87;2.77;;;62.20;20.30;;;;;;5005057;28;20502;-71
2022/05/02 11:54:13;;;;;;;3.43;3.33;;;62.30;20.10;;;;;;4995495;28;20426;-71
2022/05/02 11:56:53;;;;;;;3.50;3.40;;;62.50;20.10;;;;;;4995999;28;20419;-72
2022/05/02 11:59:26;;;;;;;3.10;2.97;;;62.50;20.00;;;;;;4995555;28;20430;-72
2022/05/02 12:02:03;;;;;;;3.47;3.37;;;62.60;19.90;;;;;;4995668;28;20426;-71
2022/05/02 12:04:31;;;;;;;2.90;2.80;;;62.60;19.90;;;;;;4995457;28;20485;-71
2022/05/02 12:07:02;;;;;;;2.77;2.67;;;62.60;19.80;;;;;;4995361;28;20410;-71
2022/05/02 12:09:32;;;;;;;2.97;2.87;;;62.00;19.60;;;;;;4997743;28;20396;-73
2022/05/02 12:12:02;;;;;;;2.60;2.50;;;60.70;19.60;;;;;;4999714;28;20830;-70
2022/05/02 12:14:31;;;;;;;2.63;2.53;;;60.20;19.80;;;;;;4995264;28;20407;-71
2022/05/02 12:17:12;;;;;;;2.67;2.57;;;60.10;19.80;;;;;;4994109;28;20831;-71
2022/05/02 12:19:39;;;;;;;2.40;2.30;;;60.40;20.00;;;;;;4994947;28;20410;-72
2022/05/02 12:22:15;;;;;;;2.40;2.30;;;60.50;19.90;;;;;;4995119;28;20411;-71
2022/05/02 12:24:43;;;;;;;2.63;2.53;;;60.60;19.90;;;;;;4995039;28;20449;-72
2022/05/02 12:27:11;;;;;;;2.83;2.63;;;60.50;19.70;;;;;;4994015;28;20949;-72
2022/05/02 12:29:41;;;;;;;2.40;2.30;;;60.00;19.70;;;;;;4994718;28;20454;-72
2022/05/02 12:32:07;;;;;;;2.60;2.50;;;59.80;19.90;;;;;;4994966;28;20471;-71
2022/05/02 12:34:52;;;;;;;2.63;2.53;;;59.60;19.80;;;;;;5001205;28;20419;-73
2022/05/02 12:37:53;;;;;;;2.40;2.30;;;59.40;19.80;;;;;;5007762;28;20207;-73
2022/05/02 12:40:23;;;;;;;2.40;2.30;;;59.20;19.80;;;;;;4960893;28;20425;-71
2022/05/02 12:42:51;;;;;;;2.17;2.07;;;58.80;19.80;;;;;;4991060;28;20474;-71
2022/05/02 12:45:19;;;;;;;2.37;2.27;;;58.50;19.70;;;;;;4994572;28;20470;-71
2022/05/02 12:47:58;;;;;;;1.70;1.60;;;57.40;19.50;;;;;;4992987;28;20436;-70
2022/05/02 12:50:27;;;;;;;1.70;1.60;;;55.40;19.60;;;;;;4994418;28;20408;-71
2022/05/02 12:52:56;;;;;;;1.50;1.40;;;53.20;19.70;;;;;;4993446;28;20748;-70
2022/05/02 12:55:23;;;;;;;1.70;1.60;;;51.40;20.10;;;;;;4994434;28;20402;-70
2022/05/02 13:00:49;;;;;;;1.37;1.27;;;50.60;20.60;;;;;;4994716;28;21009;-70
2022/05/02 13:03:27;;;;;;;1.47;1.37;;;50.90;20.90;;;;;;4994374;28;20379;-69
2022/05/02 13:05:53;;;;;;;1.30;1.20;;;51.20;20.90;;;;;;4994284;28;20430;-70
2022/05/02 13:08:41;;;;;;;1.33;1.23;;;51.70;21.00;;;;;;4993895;28;20515;-70
2022/05/02 13:11:21;;;;;;;1.80;1.70;;;52.20;21.00;;;;;;4994212;28;20171;-70
2022/05/02 13:13:52;;;;;;;1.77;1.67;;;52.40;20.90;;;;;;5013257;28;20435;-72
2022/05/02 13:16:26;;;;;;;1.30;1.20;;;52.40;20.80;;;;;;5012986;28;20411;-72
2022/05/02 13:18:52;;;;;;;1.30;1.20;;;52.50;20.80;;;;;;5011858;28;20423;-73
2022/05/02 13:21:19;;;;;;;1.30;1.20;;;52.70;20.90;;;;;;5012685;28;20487;-73
2022/05/02 13:23:47;;;;;;;1.47;1.30;;;52.70;20.90;;;;;;5012919;28;20444;-72
2022/05/02 13:26:19;;;;;;;1.43;1.33;;;52.80;20.90;;;;;;5010295;28;20424;-71
2022/05/02 13:29:07;;;;;;;2.50;2.07;;;52.90;21.00;;;;;;5011083;28;20411;-71
2022/05/02 13:31:45;;;;;;;1.63;1.53;;;53.00;21.00;;;;;;5011462;28;20443;-71
2022/05/02 13:34:54;;;;;;;1.50;1.40;;;52.90;20.80;;;;;;5010406;28;20417;-72
2022/05/02 13:37:39;;;;;;;1.60;1.50;;;52.70;20.80;;;;;;4995941;28;20411;-71
2022/05/02 13:40:10;;;;;;;1.40;1.30;;;52.50;20.90;;;;;;4993985;28;20770;-70
2022/05/02 13:42:55;;;;;;;1.70;1.60;;;52.20;20.90;;;;;;4993387;28;20385;-71
2022/05/02 13:45:35;;;;;;;1.53;1.43;;;51.90;20.90;;;;;;4993286;28;20447;-70
2022/05/02 13:48:30;;;;;;;1.40;1.30;;;51.40;21.00;;;;;;4991186;28;20494;-70
2022/05/02 13:51:00;;;;;;;1.70;1.60;;;50.70;21.10;;;;;;4993218;28;20379;-71
2022/05/02 13:53:36;;;;;;;1.33;1.23;;;49.20;21.10;;;;;;4993119;28;20461;-71
2022/05/02 13:56:26;;;;;;;1.37;1.27;;;47.80;21.40;;;;;;4991881;28;20430;-70
2022/05/02 13:59:27;;;;;;;1.30;1.20;;;46.50;21.70;;;;;;4992841;28;20404;-71